Date,TemperatureHighF,TemperatureAvgF,TemperatureLowF,DewpointHighF,DewpointAvgF,DewpointLowF,HumidityHigh,HumidityAvg,HumidityLow,PressureMaxIn,PressureMinIn,WindSpeedMaxMPH,WindSpeedAvgMPH,GustSpeedMaxMPH,PrecipitationSumIn
2014-1-1,55.0,41.7,28.4,48.3,36.4,24.7,86,82,78,29.65,29.29,8,2,8,0.08
2014-1-2,49.8,35.1,23.2,47.5,31.1,19.6,99,85,79,29.80,29.23,10,2,12,0.08
2014-1-3,36.3,26.7,18.9,31.8,22.9,15.7,87,85,83,29.83,20.52,8,2,8,0.00
2014-1-4,50.5,39.2,27.1,44.0,34.0,23.1,85,82,78,29.53,20.64,11,4,12,0.00
2014-1-5,50.7,38.5,18.5,50.5,34.4,15.2,100,85,79,30.12,20.64,20,2,20,0.04
2014-1-6,19.8,14.1,10.2,16.6,11.4,7.6,89,89,87,30.39,30.12,0,0,0,0.00
2014-1-7,30.6,18.7,7.9,26.1,15.4,5.2,89,87,83,30.39,30.21,12,2,12,0.00
2014-1-8,45.1,32.9,21.2,39.6,28.4,17.9,87,84,81,30.27,30.15,6,1,8,0.00
2014-1-9,41.5,36.1,32.5,36.5,32.2,28.4,97,86,82,30.21,30.00,2,0,6,0.55
2014-1-10,56.8,49.4,41.5,55.6,46.2,36.5,100,89,77,30.00,29.47,10,1,13,0.98
2014-1-11,56.1,49.0,41.0,56.1,45.2,35.9,100,87,77,29.83,29.47,12,4,15,0.04
2014-1-12,62.2,48.2,33.4,54.3,42.6,30.8,97,81,75,29.91,29.71,10,2,11,0.00
2014-1-13,55.4,50.1,41.0,54.5,48.3,40.0,100,94,77,29.77,29.56,11,1,11,0.59
2014-1-14,60.6,46.4,35.1,52.8,41.9,33.7,100,85,75,29.91,29.71,13,2,15,0.00
2014-1-15,42.6,33.7,25.9,36.9,29.2,22.3,86,83,81,30.03,29.91,13,2,13,0.00
2014-1-16,54.7,39.8,25.9,48.0,34.7,22.1,86,82,78,29.91,29.65,12,3,17,0.00
2014-1-17,42.4,34.9,25.3,36.9,30.3,21.8,86,83,81,30.00,29.74,15,4,19,0.00
2014-1-18,55.6,40.1,24.4,48.2,34.9,20.9,86,82,77,30.00,29.62,49,8,58,0.00
2014-1-19,51.3,41.6,32.5,44.6,36.2,28.1,83,81,78,30.00,29.77,47,10,47,0.00
2014-1-20,65.3,50.0,38.1,56.8,43.6,33.1,82,79,74,29.83,29.68,38,8,42,0.00
2014-1-21,46.9,31.9,20.8,40.9,27.5,17.7,87,84,79,30.09,29.74,65,12,65,0.00
2014-1-22,41.0,27.7,18.0,35.8,23.7,14.8,87,85,81,30.03,29.88,53,5,53,0.00
2014-1-23,29.7,24.3,15.3,25.6,20.7,12.5,89,86,85,30.56,30.03,42,8,49,0.00
2014-1-24,35.4,21.9,10.2,30.9,18.4,7.6,89,87,83,30.56,29.91,51,9,51,0.00
2014-1-25,54.3,39.4,28.0,47.6,34.3,23.9,85,82,78,29.91,29.74,53,14,53,0.00
2014-1-26,64.0,46.9,29.1,55.9,40.9,24.9,85,79,75,29.80,29.56,44,10,53,0.00
2014-1-27,50.2,31.7,21.9,43.7,27.3,18.4,86,84,78,30.18,29.62,53,13,58,0.00
2014-1-28,27.0,19.8,14.2,23.0,16.7,11.5,89,87,85,30.27,30.18,42,8,44,0.00
2014-1-29,37.0,22.8,10.9,32.3,19.3,8.1,89,86,83,30.27,30.09,42,3,42,0.00
2014-1-30,46.6,32.3,20.5,40.6,27.9,17.1,87,84,79,30.09,29.83,42,10,47,0.00
2014-1-31,56.8,48.5,39.6,49.4,42.2,34.5,82,79,77,29.91,29.77,35,9,35,0.00
2014-2-1,68.0,60.0,52.3,59.4,52.3,45.7,78,76,74,29.80,29.68,51,14,51,0.00
2014-2-2,61.5,37.0,30.4,53.7,36.1,30.2,100,97,75,29.97,29.71,42,5,51,1.42
2014-2-3,31.5,29.1,26.2,30.4,26.7,23.0,100,91,85,30.12,29.94,0,0,0,0.00
2014-2-4,34.3,32.4,29.8,34.3,32.4,29.7,100,100,97,30.00,29.65,25,1,33,1.34
2014-2-5,35.1,31.0,27.0,35.1,28.4,23.0,100,90,83,30.30,29.77,49,13,51,0.00
2014-2-6,27.1,23.9,20.3,23.0,20.4,17.1,87,86,85,30.36,30.24,33,10,47,0.00
2014-2-7,29.1,24.7,20.5,24.9,21.1,17.3,87,86,85,30.27,30.12,25,7,35,0.00
2014-2-8,38.3,32.5,26.2,33.3,28.6,22.6,91,85,82,30.12,29.94,16,1,16,0.04
2014-2-9,41.0,35.6,32.9,35.8,32.6,28.8,100,89,81,30.03,29.94,30,5,30,0.00
2014-2-10,37.6,30.8,26.4,32.6,26.7,22.6,86,84,82,30.15,30.00,44,12,44,0.00
2014-2-11,36.7,27.4,19.8,31.9,23.5,16.6,87,85,83,30.21,30.03,38,11,49,0.00
2014-2-12,35.2,30.4,26.8,30.7,26.3,22.8,85,84,83,30.06,29.80,30,2,30,0.00
2014-2-13,52.7,37.6,23.9,46.0,32.7,20.7,87,82,78,29.83,29.68,51,8,51,0.00
2014-2-14,51.3,41.4,33.1,44.8,37.0,28.8,100,84,78,29.88,29.47,44,8,47,0.24
2014-2-15,47.5,35.0,24.4,41.4,30.4,20.9,86,83,79,30.03,29.85,33,6,33,0.00
2014-2-16,59.5,46.2,35.8,51.6,40.3,31.2,83,80,75,29.97,29.85,29,6,35,0.00
2014-2-17,67.1,52.3,39.6,58.4,45.7,34.5,82,78,74,29.97,29.71,64,10,70,0.00
2014-2-18,72.3,56.1,36.7,63.1,49.1,32.1,85,78,73,29.97,29.71,40,11,44,0.00
2014-2-19,70.2,64.1,59.7,61.0,56.5,51.9,82,77,73,29.85,29.65,53,8,53,0.00
2014-2-20,73.4,63.3,44.8,63.9,55.5,39.0,81,76,71,29.83,29.47,105,22,115,0.04
2014-2-21,61.9,49.2,39.7,53.8,43.0,34.7,82,79,75,29.94,29.83,60,9,60,0.00
2014-2-22,69.4,53.8,37.4,60.8,46.9,32.4,82,78,74,29.91,29.74,42,6,42,0.00
2014-2-23,64.6,51.8,39.2,56.3,45.2,34.2,82,78,74,30.03,29.77,44,8,53,0.00
2014-2-24,52.3,42.0,30.9,45.5,36.6,26.5,83,81,78,30.12,29.91,44,8,44,0.00
2014-2-25,55.0,44.5,37.2,48.3,38.9,32.4,83,80,78,29.97,29.88,42,7,42,0.04
2014-2-26,38.1,31.0,24.1,33.1,26.8,20.5,86,84,82,30.06,29.88,40,9,51,0.00
2014-2-27,51.4,35.3,22.6,44.6,30.6,19.1,86,83,78,29.94,29.83,42,5,44,0.00
2014-2-28,60.4,43.1,29.8,52.9,37.5,25.8,85,80,75,29.88,29.77,40,10,40,0.04
2014-3-1,72.0,58.8,46.4,62.5,51.2,40.4,79,76,73,29.94,29.83,32,4,33,0.00
2014-3-2,63.3,46.2,32.7,55.7,41.3,30.4,100,83,75,29.97,29.80,33,4,35,1.97
2014-3-3,32.5,20.5,15.3,32.2,17.6,12.5,100,88,86,30.21,29.83,0,0,0,0.00
2014-3-4,32.7,26.0,18.3,28.2,22.4,15.4,94,86,83,30.12,29.97,0,0,0,0.00
2014-3-5,38.7,33.8,29.5,34.2,32.2,28.3,100,94,82,30.03,29.94,23,1,32,0.08
2014-3-6,43.3,36.2,30.7,37.8,33.1,26.7,100,89,81,29.97,29.85,0,0,11,0.04
2014-3-7,62.2,45.5,28.2,54.3,39.8,25.1,91,81,75,29.88,29.77,27,3,40,0.00
2014-3-8,70.0,53.5,38.3,60.8,46.9,34.3,87,78,73,30.06,29.83,44,8,51,0.00
2014-3-9,56.5,47.4,41.7,48.7,41.4,36.6,82,80,77,30.12,29.97,23,3,29,0.00
2014-3-10,69.4,54.7,38.8,60.8,48.0,34.2,86,78,74,29.97,29.71,46,9,53,0.00
2014-3-11,80.1,63.9,49.8,69.4,56.5,44.5,99,77,70,29.71,29.44,49,10,49,0.00
2014-3-12,66.0,52.1,39.7,57.7,45.6,34.7,82,78,74,29.97,29.41,58,15,90,0.00
2014-3-13,67.5,51.0,34.2,58.9,44.5,29.6,83,78,74,30.06,29.94,42,8,51,0.00
2014-3-14,68.0,55.2,45.5,59.2,48.2,39.7,81,77,74,29.94,29.83,58,11,58,0.00
2014-3-15,73.0,58.7,46.9,63.8,51.2,40.9,79,76,73,29.88,29.68,29,5,33,0.00
2014-3-16,58.1,50.2,36.5,58.1,48.8,33.8,100,95,77,29.71,29.44,49,4,53,0.51
2014-3-17,51.4,39.8,34.0,44.8,34.8,29.5,90,82,78,29.71,29.62,40,9,49,0.00
2014-3-18,62.8,48.1,33.4,54.9,42.4,30.6,95,81,75,29.74,29.53,44,12,47,0.00
2014-3-19,66.7,56.0,46.8,58.0,48.9,40.5,79,77,74,29.97,29.65,62,18,79,0.00
2014-3-20,69.3,53.2,38.8,60.6,46.4,33.7,82,78,74,30.03,29.85,30,4,30,0.00
2014-3-21,74.3,58.7,42.6,64.4,51.2,37.1,81,77,71,29.88,29.71,44,8,44,0.00
2014-3-22,69.8,59.3,46.6,61.0,51.8,40.5,86,76,73,29.97,29.74,38,8,40,0.04
2014-3-23,56.3,46.6,39.7,49.1,40.9,34.5,90,81,77,30.12,29.94,42,10,44,0.04
2014-3-24,59.2,45.5,33.6,51.5,39.7,29.1,83,80,75,30.12,29.85,35,8,38,0.00
2014-3-25,54.9,44.0,36.1,48.0,38.4,31.6,83,81,78,30.09,29.91,51,10,65,0.00
2014-3-26,60.8,45.7,31.1,53.3,39.8,26.5,83,80,75,30.18,29.94,35,9,35,0.00
2014-3-27,72.0,57.0,49.1,62.7,51.8,43.0,100,83,73,29.94,29.59,53,14,60,0.71
2014-3-28,74.5,64.0,59.0,65.5,61.3,59.0,100,92,71,29.77,29.65,32,8,35,1.26
2014-3-29,60.1,50.9,42.1,60.1,47.3,37.0,100,88,77,30.06,29.68,40,7,40,0.28
2014-3-30,66.2,51.1,36.0,57.7,44.9,32.9,93,80,74,30.12,29.91,25,3,30,0.00
2014-3-31,76.6,61.2,43.0,66.7,53.4,37.9,82,76,71,29.94,29.77,40,8,40,0.00
2014-4-1,81.1,68.4,57.4,70.4,59.6,50.1,77,73,70,29.88,29.83,44,8,44,0.00
2014-4-2,83.1,71.2,62.2,71.8,62.0,54.3,75,73,69,29.85,29.74,42,11,42,0.00
2014-4-3,83.7,74.3,67.6,72.1,64.7,59.4,79,72,69,29.74,29.56,53,17,53,0.00
2014-4-4,73.8,59.7,48.4,63.9,53.5,42.3,100,80,71,29.94,29.50,93,17,93,0.55
2014-4-5,61.0,51.3,41.7,53.1,44.8,36.2,81,78,75,30.00,29.88,29,6,30,0.00
2014-4-6,63.9,52.2,42.4,55.9,47.1,36.9,100,83,75,29.91,29.56,38,7,44,0.55
2014-4-7,53.4,50.2,44.6,52.5,47.2,39.7,100,90,78,29.71,29.35,53,10,62,0.12
2014-4-8,65.3,52.4,41.7,56.8,47.1,40.1,100,83,74,29.85,29.62,51,7,60,0.00
2014-4-9,70.7,56.3,42.4,61.3,49.2,37.3,82,77,73,30.00,29.85,40,7,53,0.00
2014-4-10,79.9,65.5,50.9,69.2,57.1,44.3,78,74,70,29.97,29.83,53,13,60,0.00
2014-4-11,81.5,68.6,59.9,70.8,59.8,52.1,75,73,70,29.97,29.85,51,11,51,0.00
2014-4-12,84.4,70.3,59.0,72.8,61.2,51.6,77,73,69,29.91,29.74,51,10,56,0.00
2014-4-13,79.0,71.9,65.8,68.2,62.7,57.5,78,73,70,29.77,29.53,60,15,60,0.04
2014-4-14,67.8,56.2,41.2,67.1,54.9,36.1,100,96,74,29.85,29.53,64,7,67,0.87
2014-4-15,52.7,43.8,35.8,45.9,38.3,31.0,83,81,78,30.09,29.85,49,11,55,0.00
2014-4-16,65.8,49.7,35.1,57.3,43.4,30.5,83,79,74,30.12,29.91,33,6,33,0.00
2014-4-17,73.8,59.3,42.8,63.9,51.7,37.3,81,76,71,30.12,30.00,30,6,33,0.00
2014-4-18,75.7,64.8,55.2,65.6,56.4,48.2,78,75,71,30.06,29.97,30,3,33,0.00
2014-4-19,81.3,67.2,53.8,70.4,58.6,47.5,81,74,70,30.03,29.94,27,4,40,0.00
2014-4-20,86.4,69.3,54.3,74.8,60.3,47.6,78,73,69,30.03,29.91,25,3,33,0.00
2014-4-21,80.6,71.2,64.2,69.9,62.0,55.9,77,73,70,29.94,29.77,35,5,51,0.00
2014-4-22,76.5,67.5,58.8,66.5,59.8,51.2,87,76,71,29.80,29.74,25,4,40,0.00
2014-4-23,82.0,65.8,52.0,71.1,57.4,45.3,78,74,70,29.88,29.74,25,3,25,0.00
2014-4-24,87.8,67.8,52.9,76.1,60.6,46.2,100,78,69,29.77,29.53,42,6,49,0.51
2014-4-25,80.8,66.6,59.5,69.9,59.2,51.7,100,77,70,29.83,29.59,62,10,62,0.00
2014-4-26,90.1,69.8,54.0,77.7,60.7,47.3,78,73,67,29.80,29.65,30,4,32,0.00
2014-4-27,70.9,67.9,64.2,70.0,64.0,60.1,100,88,73,29.68,29.44,44,7,44,0.59
2014-4-28,72.9,68.7,63.5,70.3,62.4,55.4,100,81,73,29.50,29.35,25,4,25,0.20
2014-4-29,70.0,63.6,57.7,61.0,55.6,50.9,78,75,73,29.62,29.44,44,5,53,0.00
2014-4-30,67.8,56.0,50.2,58.9,48.9,44.0,79,77,74,29.88,29.62,42,7,44,0.00
2014-5-1,78.8,58.6,47.5,68.6,51.2,41.8,81,76,70,29.88,29.80,46,9,53,0.00
2014-5-2,74.7,61.2,51.4,64.8,53.4,45.2,79,76,71,29.85,29.74,44,4,44,0.00
2014-5-3,94.5,67.9,52.9,81.3,59.1,46.2,78,74,66,29.85,29.77,44,6,44,0.00
2014-5-4,103.5,76.2,61.9,88.1,66.1,54.0,75,71,63,29.88,29.74,53,6,53,0.39
2014-5-5,104.0,77.9,67.1,89.1,67.6,58.5,74,71,63,29.80,29.65,62,8,70,0.00
2014-5-6,102.6,77.1,66.2,86.7,66.9,57.7,74,71,63,29.74,29.65,40,5,40,0.00
2014-5-7,99.5,77.0,67.6,85.5,66.9,59.1,74,71,65,29.83,29.71,44,6,56,0.00
2014-5-8,87.1,78.2,70.7,75.5,67.9,61.5,73,71,69,29.88,29.77,32,5,35,0.00
2014-5-9,76.8,71.7,65.7,69.1,64.7,60.3,100,79,71,29.83,29.71,29,5,33,0.16
2014-5-10,100.8,75.9,66.4,86.2,66.0,58.3,75,71,63,29.85,29.74,35,4,40,0.00
2014-5-11,100.2,79.4,70.7,85.8,68.9,62.0,74,70,65,29.85,29.74,32,5,35,0.00
2014-5-12,98.2,80.4,73.2,83.9,69.9,63.9,74,70,65,29.88,29.77,25,7,40,0.00
2014-5-13,92.7,73.0,62.8,79.3,66.5,58.7,100,81,66,29.97,29.80,49,4,75,0.98
2014-5-14,62.8,56.7,48.7,62.6,56.3,48.7,100,99,82,29.94,29.77,35,5,40,0.28
2014-5-15,86.2,57.1,48.4,74.5,52.0,44.3,100,84,69,29.97,29.88,60,8,60,0.00
2014-5-16,87.6,61.9,49.5,75.4,54.2,44.0,85,76,69,29.94,29.85,51,8,62,0.00
2014-5-17,59.9,56.2,52.2,57.6,51.8,47.6,100,85,75,29.97,29.88,16,1,22,0.00
2014-5-18,80.4,60.4,55.0,69.8,57.1,53.1,100,90,70,30.03,29.94,14,0,16,0.00
2014-5-19,94.1,70.7,57.2,80.8,62.9,54.0,97,77,66,29.97,29.85,30,3,30,0.00
2014-5-20,103.5,77.6,69.4,88.2,67.3,60.6,74,71,63,29.97,29.85,60,6,60,0.00
2014-5-21,102.2,79.0,72.0,86.7,68.6,62.7,73,70,63,29.97,29.83,51,12,62,0.00
2014-5-22,106.7,80.4,70.5,90.6,69.7,61.3,73,70,62,29.97,29.88,42,5,42,0.00
2014-5-23,99.3,79.3,69.8,84.6,68.7,60.6,73,70,65,29.94,29.83,33,4,37,0.00
2014-5-24,107.4,79.9,70.7,91.6,69.3,61.5,73,70,62,29.94,29.83,22,0,23,1.02
2014-5-25,100.0,79.3,73.8,86.0,68.8,63.9,71,70,65,29.91,29.85,37,2,37,0.00
2014-5-26,101.5,80.4,70.9,86.7,69.7,61.7,73,70,63,29.97,29.85,33,2,33,0.00
2014-5-27,87.3,76.6,68.5,75.7,67.5,60.8,100,74,69,29.91,29.77,44,2,62,1.22
2014-5-28,83.1,71.2,67.5,76.5,67.9,62.3,100,90,69,29.83,29.74,12,0,23,0.08
2014-5-29,76.5,71.8,68.4,74.8,66.7,63.6,100,84,71,29.80,29.74,18,1,22,0.00
2014-5-30,99.9,73.6,70.2,85.7,66.7,62.8,97,80,65,29.85,29.80,22,2,25,0.00
2014-5-31,102.0,77.1,68.9,86.4,68.0,62.1,83,74,63,29.91,29.80,22,2,22,0.00
2014-6-1,102.6,78.4,71.1,87.7,68.8,62.9,86,73,63,29.91,29.83,22,2,25,0.00
2014-6-2,99.9,77.5,71.8,85.3,69.6,65.5,100,78,65,29.94,29.83,25,2,30,0.51
2014-6-3,103.1,80.3,73.8,87.6,70.0,65.3,77,71,63,29.91,29.74,23,1,32,0.00
2014-6-4,103.5,82.1,74.3,88.6,71.4,65.5,75,70,63,29.83,29.62,42,5,53,0.00
2014-6-5,88.2,76.6,68.7,76.1,68.3,61.3,100,76,67,29.80,29.59,51,6,53,0.08
2014-6-6,88.3,74.7,69.6,76.2,68.1,62.7,100,81,67,29.80,29.68,30,3,35,0.08
2014-6-7,98.4,77.6,70.5,83.9,71.3,63.2,100,82,65,29.83,29.65,42,4,44,0.04
2014-6-8,83.8,75.1,69.1,72.4,66.1,62.2,90,74,69,29.88,29.71,32,3,32,1.06
2014-6-9,87.3,71.4,66.7,78.4,69.3,62.7,100,94,69,29.77,29.59,42,2,58,1.38
2014-6-10,82.6,70.7,68.4,75.2,68.1,61.2,100,92,71,29.65,29.56,30,1,33,0.04
2014-6-11,89.6,72.3,67.6,76.5,67.0,61.8,100,84,67,29.68,29.56,35,4,35,0.00
2014-6-12,103.8,74.4,67.1,88.1,67.0,59.7,100,79,63,29.77,29.68,40,3,49,0.35
2014-6-13,98.8,73.6,68.4,83.4,68.0,59.8,100,84,65,29.85,29.71,30,2,30,0.00
2014-6-14,103.3,74.5,63.5,87.9,64.8,55.4,75,72,63,29.91,29.80,16,1,22,0.00
2014-6-15,106.0,80.7,70.3,90.4,70.0,61.2,73,70,63,29.88,29.77,40,3,40,0.00
2014-6-16,108.3,82.8,74.7,92.1,71.8,65.3,73,70,62,29.97,29.85,25,2,25,0.00
2014-6-17,109.2,84.4,76.3,93.1,73.1,66.3,73,69,62,29.97,29.83,40,3,40,0.00
2014-6-18,106.2,84.8,77.4,90.4,73.4,67.4,71,69,62,29.91,29.85,35,3,38,0.00
2014-6-19,109.8,86.5,76.1,93.1,74.7,66.2,71,68,61,29.97,29.85,44,4,44,0.00
2014-6-20,107.4,85.0,77.7,91.3,73.5,67.5,71,69,62,29.94,29.80,30,4,35,0.00
2014-6-21,111.4,83.0,75.6,94.5,71.9,65.6,71,69,61,29.85,29.74,38,4,38,0.00
2014-6-22,105.8,82.5,74.7,89.8,71.5,65.3,74,70,63,29.80,29.68,23,1,25,0.00
2014-6-23,89.4,81.0,71.6,77.0,70.5,62.4,75,71,67,29.80,29.71,49,3,68,0.00
2014-6-24,83.7,74.9,71.2,74.8,69.2,63.2,100,83,69,29.83,29.74,33,5,40,0.35
2014-6-25,95.5,77.7,72.3,81.7,72.9,67.4,100,87,66,29.88,29.83,33,3,33,0.00
2014-6-28,70.9,70.7,70.5,70.9,70.7,70.5,100,100,100,29.94,29.91,0,0,0,0.00
2014-6-29,70.7,70.0,69.3,70.7,70.0,69.3,100,100,100,29.94,29.88,51,2,53,1.54
2014-6-30,105.3,85.6,79.3,90.3,74.5,70.3,83,70,63,29.85,29.71,38,9,53,0.00
2014-7-1,97.5,79.9,71.2,82.4,69.9,62.7,77,72,66,29.85,29.71,40,8,42,0.00
2014-7-2,91.2,77.2,69.4,78.5,69.6,62.0,100,78,67,29.88,29.77,40,4,58,0.04
2014-7-3,102.4,75.4,68.7,87.6,65.6,60.1,75,72,63,30.03,29.88,25,4,29,0.00
2014-7-4,103.1,74.8,65.8,88.2,65.0,57.7,75,72,63,30.09,30.03,23,2,23,0.00
2014-7-5,105.3,76.2,66.0,89.4,66.2,57.7,75,71,63,30.06,29.91,22,1,23,0.00
2014-7-6,104.7,78.1,66.9,89.4,67.8,58.4,74,71,63,29.97,29.83,27,2,30,0.00
2014-7-7,106.5,82.9,75.0,90.3,71.8,65.1,71,69,63,29.83,29.74,56,5,56,0.00
2014-7-8,92.8,82.7,74.1,79.8,71.8,65.3,77,70,66,29.85,29.74,90,8,90,0.35
2014-7-9,84.0,80.2,77.4,73.2,69.7,67.4,71,70,69,29.85,29.80,22,2,23,0.28
2014-7-10,98.6,77.8,71.2,83.9,68.7,65.1,83,74,65,29.94,29.85,23,1,25,0.00
2014-7-11,92.8,79.5,74.1,79.5,69.2,65.0,74,71,66,30.00,29.91,25,1,25,0.00
2014-7-12,110.3,83.5,73.8,93.1,72.9,66.0,78,71,61,30.00,29.88,23,1,23,0.00
2014-7-13,107.4,84.6,76.5,91.6,73.3,67.0,73,69,62,29.91,29.80,40,3,49,0.00
2014-7-14,110.7,83.3,72.7,93.9,73.5,65.1,100,73,61,29.83,29.68,67,6,70,0.39
2014-7-15,97.9,75.4,67.8,83.1,66.7,59.2,100,75,65,29.85,29.80,25,4,33,0.00
2014-7-16,90.9,71.3,63.1,78.5,62.1,55.2,75,73,67,29.88,29.83,27,2,27,0.00
2014-7-17,77.2,71.4,66.2,67.2,62.2,57.7,74,73,71,29.91,29.85,12,0,12,0.00
2014-7-18,68.2,65.9,63.9,67.8,61.9,56.4,100,87,75,29.91,29.80,20,0,20,0.28
2014-7-19,79.9,71.7,66.2,69.2,63.5,58.8,85,75,70,29.85,29.77,16,1,23,0.00
2014-7-20,86.7,75.7,69.6,75.0,66.3,61.8,78,73,69,29.88,29.80,22,1,22,0.00
2014-7-21,96.3,77.6,69.4,83.1,67.7,61.7,77,72,66,29.94,29.85,16,0,18,0.00
2014-7-22,106.7,81.4,71.2,90.4,70.7,62.5,74,70,62,29.91,29.85,23,1,23,0.00
2014-7-23,103.5,80.8,74.5,88.4,70.2,65.7,74,70,63,29.88,29.77,25,2,35,0.00
2014-7-24,103.1,78.6,72.0,87.6,68.3,63.1,74,71,63,29.88,29.80,25,3,29,0.00
2014-7-25,106.7,78.8,67.3,90.3,68.4,58.7,74,71,62,29.91,29.77,23,1,25,0.00
2014-7-26,109.6,88.5,75.9,93.1,76.2,65.8,71,67,61,29.85,29.77,38,5,42,0.00
2014-7-27,93.2,90.2,81.5,80.2,77.7,70.8,70,67,66,29.83,29.74,44,10,60,0.00
2014-7-28,102.0,93.0,80.6,87.2,80.0,69.9,70,66,63,29.91,29.77,40,5,42,0.00
2014-7-29,102.0,102.0,102.0,87.2,87.2,87.2,63,63,63,29.97,29.88,27,4,27,0.00
2014-7-30,102.0,102.0,102.0,87.2,87.2,87.2,63,63,63,29.94,29.88,25,2,30,0.00
2014-7-31,102.0,102.0,102.0,87.2,87.2,87.2,63,63,63,29.94,29.88,22,2,25,0.00
2014-8-1,102.0,102.0,102.0,87.2,87.2,87.2,63,63,63,29.91,29.83,22,2,22,0.00
2014-8-2,102.0,102.0,102.0,87.2,87.2,87.2,63,63,63,29.91,29.83,22,2,25,0.00
2014-8-3,102.0,102.0,102.0,87.2,87.2,87.2,63,63,63,29.91,29.83,25,2,25,0.00
2014-8-4,102.0,102.0,102.0,87.2,87.2,87.2,63,63,63,29.91,29.83,30,2,30,0.00
2014-8-5,102.0,102.0,102.0,87.2,87.2,87.2,63,63,63,29.91,29.83,30,2,30,0.00
2014-8-6,102.0,102.0,102.0,87.2,87.2,87.2,63,63,63,29.88,29.80,32,4,32,0.00
2014-8-7,102.0,102.0,102.0,87.2,87.2,87.2,63,63,63,29.83,29.74,44,2,56,0.00
2014-8-8,102.0,95.6,78.4,87.2,82.1,68.4,73,65,63,29.77,29.71,33,3,33,0.04
2014-8-9,97.9,81.3,75.7,83.3,74.3,66.9,100,81,65,29.83,29.74,33,4,42,0.16
2014-8-10,99.1,83.9,76.1,85.2,72.9,67.6,75,70,65,29.83,29.74,25,4,30,0.00
2014-8-11,91.2,83.2,76.6,78.9,72.3,67.0,73,70,67,29.80,29.71,35,6,38,0.00
2014-8-12,92.5,79.8,74.5,79.3,69.3,64.4,73,70,66,29.83,29.74,33,4,38,0.00
2014-8-13,91.6,77.6,67.6,78.6,67.4,59.1,74,71,66,29.94,29.83,25,3,30,0.00
2014-8-14,91.4,76.0,66.2,78.4,66.0,57.7,74,71,66,29.94,29.83,29,2,29,0.00
2014-8-15,92.1,77.7,67.3,79.0,67.5,58.7,74,71,66,29.88,29.80,27,2,27,0.00
2014-8-16,93.4,80.7,70.0,80.3,70.0,60.8,73,70,66,29.85,29.71,35,3,40,0.00
2014-8-17,97.0,83.8,77.4,83.4,72.6,67.4,71,69,65,29.80,29.68,53,8,58,0.00
2014-8-18,85.1,80.5,76.6,73.7,69.9,66.8,73,70,69,29.77,29.68,42,6,44,0.00
2014-8-19,96.4,83.5,74.1,83.2,72.4,64.8,73,69,66,29.77,29.65,42,6,53,0.00
2014-8-20,99.9,87.1,78.6,85.8,75.3,68.6,71,68,65,29.88,29.71,44,7,55,0.00
2014-8-21,98.1,86.3,78.3,84.1,74.6,68.2,71,68,65,29.94,29.83,44,6,51,0.00
2014-8-22,98.4,87.2,78.4,84.5,75.3,68.2,71,68,65,29.91,29.80,40,5,40,0.00
2014-8-23,100.8,88.5,79.7,86.2,76.4,69.1,70,68,63,29.85,29.74,32,4,35,0.00
2014-8-24,101.3,86.5,78.8,86.4,74.8,68.2,70,68,63,29.80,29.71,25,2,27,0.00
2014-8-25,100.0,86.1,77.4,85.8,74.4,67.4,71,68,65,29.83,29.74,16,2,22,0.00
2014-8-26,94.3,84.2,78.8,81.2,72.9,68.4,71,69,66,29.91,29.80,23,1,23,0.00
2014-8-27,96.6,83.4,75.2,83.4,72.2,65.6,73,69,66,29.91,29.80,20,2,22,0.00
2014-8-28,99.3,84.1,74.5,85.3,72.8,65.1,73,69,65,29.83,29.74,25,2,32,0.00
2014-8-29,93.7,83.2,75.4,80.7,72.1,65.5,73,69,66,29.83,29.71,32,2,32,0.00
2014-8-30,83.5,78.3,72.7,73.8,70.3,67.0,100,77,69,29.85,29.80,12,0,14,0.55
2014-8-31,88.7,77.8,72.7,77.7,72.8,68.8,100,86,67,29.85,29.77,38,2,42,0.67
2014-9-1,90.3,82.7,76.5,78.0,72.4,68.3,78,71,67,29.85,29.74,37,5,40,0.00
2014-9-2,88.9,80.3,75.9,76.7,70.3,66.5,91,72,67,29.85,29.71,33,5,40,0.00
2014-9-3,89.6,82.0,73.2,77.3,71.6,65.5,79,71,67,29.85,29.77,22,1,22,0.00
2014-9-4,88.2,83.3,74.7,76.0,72.2,66.2,75,70,67,29.88,29.80,23,1,25,0.00
2014-9-5,96.6,83.4,74.8,83.4,72.3,65.3,73,69,66,29.91,29.80,29,2,30,0.00
2014-9-6,83.5,81.5,75.9,72.7,71.1,66.9,74,71,70,29.88,29.80,25,2,25,0.04
2014-9-7,83.5,83.5,83.5,72.7,72.7,72.7,70,70,70,29.88,29.80,20,3,23,0.00
2014-9-8,83.5,83.5,83.5,72.7,72.7,72.7,70,70,70,29.88,29.77,20,2,20,0.00
2014-9-9,83.5,83.5,83.5,72.7,72.7,72.7,70,70,70,29.83,29.68,23,1,32,0.00
2014-9-10,83.5,83.5,83.5,72.7,72.7,72.7,70,70,70,29.68,29.59,32,4,42,0.00
2014-9-11,83.5,83.5,83.5,72.7,72.7,72.7,70,70,70,29.85,29.65,25,2,30,4.53
2014-9-12,83.5,83.5,83.5,72.7,72.7,72.7,70,70,70,29.97,29.83,20,1,32,0.00
2014-9-13,83.5,83.5,83.5,72.7,72.7,72.7,70,70,70,30.03,29.94,22,2,25,0.00
2014-9-14,83.5,83.5,83.5,72.7,72.7,72.7,70,70,70,30.00,29.88,20,1,23,0.00
2014-9-15,83.5,83.5,83.5,72.7,72.7,72.7,70,70,70,29.94,29.85,16,0,23,0.00
2014-9-16,83.5,83.5,83.5,72.7,72.7,72.7,70,70,70,29.88,29.80,14,0,16,0.00
2014-9-17,83.5,83.5,83.5,72.7,72.7,72.7,70,70,70,29.83,29.65,12,0,16,0.00
2014-9-18,83.5,80.0,71.1,72.7,69.6,62.4,74,71,70,29.74,29.65,22,1,22,0.00
2014-9-19,84.9,74.8,67.8,73.5,65.5,60.2,78,73,69,29.80,29.74,16,0,16,0.00
2014-9-20,91.2,78.7,71.2,78.9,68.5,62.4,75,71,67,29.83,29.71,23,1,23,0.00
2014-9-21,90.9,79.4,70.2,78.4,68.9,61.0,73,71,67,29.83,29.68,27,4,35,0.00
2014-9-22,80.4,70.0,63.0,69.8,60.9,55.0,75,73,70,29.97,29.83,22,3,30,0.00
2014-9-23,83.5,68.0,58.1,72.1,59.3,50.7,77,74,69,29.97,29.88,18,1,25,0.00
2014-9-24,85.8,71.5,60.1,74.3,62.2,52.7,77,73,69,30.00,29.88,16,1,20,0.00
2014-9-25,87.6,73.4,64.4,76.1,63.9,56.4,75,72,69,30.00,29.85,20,0,25,0.00
2014-9-26,87.8,74.2,64.6,76.1,64.6,56.6,75,72,67,29.91,29.83,18,1,22,0.00
2014-9-27,87.8,75.7,69.1,76.1,65.9,60.5,74,72,67,29.85,29.77,14,1,16,0.00
2014-9-28,86.4,74.4,66.6,74.8,64.7,58.0,74,72,69,29.85,29.74,16,0,20,0.00
2014-9-29,88.5,75.4,66.6,76.3,65.6,58.5,75,72,67,29.77,29.65,16,1,25,0.00
2014-9-30,84.2,74.6,65.7,72.8,64.9,57.7,75,72,69,29.68,29.59,23,0,25,0.00
2014-10-1,90.9,77.7,68.0,78.5,67.5,59.4,74,71,67,29.68,29.59,22,1,23,0.00
2014-10-2,89.6,77.5,68.9,77.3,69.3,60.4,100,76,67,29.68,29.50,42,2,53,0.43
2014-10-3,77.0,68.5,57.2,67.0,59.7,49.8,77,73,71,29.85,29.68,30,10,35,0.20
2014-10-4,71.2,58.6,51.6,62.0,51.2,45.2,79,76,73,29.85,29.68,51,7,51,0.00
2014-10-5,71.4,58.5,51.6,62.2,51.0,45.2,79,76,73,29.68,29.53,14,0,16,0.00
2014-10-6,76.3,68.2,60.8,66.3,60.4,54.3,100,77,71,29.62,29.53,46,6,49,0.16
2014-10-7,82.9,73.2,65.1,71.6,64.5,58.0,93,74,69,29.71,29.56,42,4,44,0.04
2014-10-8,79.0,74.6,69.4,68.9,65.5,61.2,77,73,71,29.83,29.68,20,0,20,0.00
2014-10-9,85.6,75.1,68.4,74.0,65.7,60.3,75,72,69,29.83,29.68,40,2,40,0.00
2014-10-10,86.5,75.4,65.5,74.7,65.9,58.3,81,73,69,29.71,29.59,49,6,53,0.04
2014-10-11,66.4,62.0,60.1,65.4,59.8,54.9,100,93,78,29.80,29.65,9,0,18,0.12
2014-10-12,74.8,68.2,61.5,66.8,61.8,55.5,91,80,73,29.74,29.59,20,0,23,0.12
2014-10-13,77.4,67.7,61.5,69.4,64.8,56.9,100,91,71,29.65,29.35,42,1,68,1.30
2014-10-14,62.4,59.0,56.8,62.4,56.6,51.8,100,92,77,29.59,29.35,35,4,35,0.28
2014-10-15,66.2,60.3,56.1,57.7,54.2,50.3,100,81,74,29.62,29.53,42,6,42,0.00
2014-10-16,77.0,61.3,51.3,67.0,53.6,45.1,79,76,71,29.68,29.56,30,2,35,0.00
2014-10-17,82.9,67.5,58.1,71.6,58.9,50.8,77,74,69,29.68,29.53,35,4,37,0.00
2014-10-18,72.3,61.8,55.4,63.1,54.0,48.2,78,76,73,29.85,29.68,25,3,30,0.00
2014-10-19,69.4,57.5,49.5,60.8,50.3,43.2,79,77,74,29.91,29.77,20,1,23,0.00
2014-10-20,74.3,60.1,49.8,64.1,52.7,44.1,81,77,71,29.77,29.68,25,2,32,0.00
2014-10-21,78.1,63.6,55.8,68.1,55.7,49.5,79,76,71,29.80,29.71,23,1,25,0.00
2014-10-22,71.1,59.1,52.3,61.8,51.6,45.7,78,76,73,29.94,29.80,20,2,22,0.00
2014-10-23,63.7,55.1,46.2,55.6,48.2,40.6,81,78,75,29.88,29.77,16,1,20,0.00
2014-10-24,75.7,59.7,48.4,65.6,52.2,42.7,81,77,71,29.83,29.74,23,1,25,0.00
2014-10-25,83.7,67.6,56.7,72.3,59.2,50.1,79,74,69,29.80,29.71,27,3,27,0.00
2014-10-26,88.3,72.4,62.1,76.2,63.4,55.1,78,74,67,29.74,29.62,30,1,35,0.00
2014-10-27,85.8,72.2,64.4,74.3,62.9,56.8,77,73,69,29.68,29.59,38,4,40,0.00
2014-10-28,70.3,65.3,54.5,64.8,59.4,53.9,100,82,73,29.83,29.65,25,1,30,0.47
2014-10-29,70.3,57.2,50.9,61.0,53.4,46.0,100,88,73,29.88,29.80,0,0,0,0.12
2014-10-30,70.2,56.2,45.5,61.0,49.3,40.3,82,78,73,29.85,29.68,22,0,22,0.00
2014-10-31,58.8,51.8,42.1,51.5,45.3,36.6,81,79,77,30.00,29.65,44,6,68,0.00
2014-11-1,55.2,43.0,36.7,48.5,37.5,31.9,83,81,78,30.09,29.97,33,5,44,0.00
2014-11-2,56.5,43.9,33.6,49.1,38.3,29.3,85,81,77,30.15,30.00,14,0,16,0.00
2014-11-3,70.9,55.4,45.0,61.5,48.4,39.4,81,77,73,30.06,29.91,29,2,29,0.00
2014-11-4,74.5,62.1,55.2,64.6,54.6,48.2,91,77,71,29.91,29.77,30,2,40,0.16
2014-11-5,58.8,56.9,55.6,58.6,56.8,55.6,100,100,91,29.88,29.80,0,0,14,0.94
2014-11-6,66.0,55.0,44.6,57.5,50.8,38.9,100,87,74,29.94,29.80,35,5,40,0.04
2014-11-7,59.9,46.9,38.8,52.1,41.0,34.2,83,80,75,29.91,29.68,23,1,23,0.00
2014-11-8,57.9,50.2,43.2,50.7,44.0,37.6,82,79,77,29.77,29.65,37,2,42,0.00
2014-11-9,63.7,49.4,39.2,55.7,43.4,34.9,85,80,75,29.77,29.59,33,2,35,0.00
2014-11-10,73.2,58.4,46.9,63.9,51.0,41.3,81,77,73,29.59,29.41,30,4,32,0.00
2014-11-11,64.8,53.6,39.2,56.8,47.2,34.2,86,79,75,29.83,29.47,33,4,35,0.00
2014-11-12,43.5,37.8,34.7,38.0,33.0,30.2,83,82,81,29.97,29.83,30,4,32,0.00
2014-11-13,39.9,33.8,28.6,34.9,29.3,24.6,85,83,82,30.03,29.94,33,7,35,0.00
2014-11-14,41.9,31.6,25.7,36.2,27.3,22.1,86,84,81,30.03,29.91,25,2,30,0.00
2014-11-15,50.4,38.4,27.9,43.8,33.4,23.9,85,82,78,29.94,29.74,30,1,30,0.00
2014-11-16,42.3,39.1,35.8,41.4,37.3,33.9,100,93,81,29.77,29.50,0,0,16,0.31
2014-11-17,38.8,32.5,26.2,36.0,29.0,22.6,100,87,82,29.88,29.50,64,5,64,0.00
2014-11-18,41.7,30.4,22.5,36.2,26.2,18.9,86,84,81,30.00,29.83,42,5,44,0.00
2014-11-19,56.1,42.3,30.2,48.9,36.8,25.9,85,81,77,29.83,29.62,60,7,60,0.00
2014-11-20,57.9,44.9,33.6,50.7,39.2,29.3,85,80,77,29.80,29.68,20,1,23,0.00
2014-11-21,55.2,48.3,41.5,48.3,42.3,36.4,82,80,78,29.85,29.77,14,1,20,0.08
2014-11-22,65.7,57.8,50.4,57.2,50.5,44.2,79,77,74,29.80,29.44,30,2,30,0.00
2014-11-23,61.7,59.8,58.1,61.7,56.1,50.8,100,88,77,29.44,28.82,30,2,35,0.67
2014-11-24,61.5,52.7,43.0,54.1,46.1,37.5,82,78,75,29.56,28.91,70,14,84,0.00
2014-11-25,51.6,41.9,34.5,45.0,36.5,30.0,83,81,78,29.71,29.53,30,3,30,0.00
2014-11-26,50.7,41.1,31.5,44.1,35.9,27.2,85,82,78,29.68,29.44,44,4,51,0.00
2014-11-27,47.7,40.5,33.6,41.6,35.3,29.3,85,82,79,29.94,29.68,40,7,42,0.00
2014-11-28,56.8,42.8,31.3,49.6,37.3,26.8,85,81,77,29.91,29.53,23,2,35,0.00
2014-11-29,65.7,58.6,47.1,57.2,51.2,41.1,79,76,74,29.53,29.38,53,11,53,0.00
2014-11-30,70.9,65.8,61.3,61.7,57.5,54.0,77,74,73,29.62,29.41,51,12,51,0.00
2014-12-1,63.9,45.7,37.2,55.7,41.3,33.4,97,85,75,29.85,29.62,32,1,32,0.16
2014-12-2,41.2,38.7,35.4,37.0,35.1,33.1,97,87,82,29.80,29.68,0,0,0,0.00
2014-12-3,50.4,44.7,39.7,46.2,40.8,35.5,100,86,79,29.77,29.68,0,0,0,0.04
2014-12-4,62.8,53.6,46.2,54.9,49.5,46.0,100,87,75,29.71,29.59,0,0,0,0.00
2014-12-5,65.7,61.0,54.3,65.7,59.4,50.0,100,95,79,29.62,29.47,14,0,23,1.54
2014-12-6,65.7,51.8,43.5,65.7,48.0,38.0,100,87,78,29.88,29.47,47,6,47,0.04
2014-12-7,49.3,44.3,41.9,43.2,38.7,36.8,82,81,79,29.88,29.68,32,4,40,0.00
2014-12-8,58.5,46.6,38.7,51.0,41.0,34.2,85,81,77,29.71,29.59,47,5,47,0.00
2014-12-9,50.9,41.7,34.9,44.3,37.0,30.4,95,83,78,29.74,29.59,42,6,49,0.00
2014-12-10,48.2,40.0,32.2,42.1,34.9,28.1,85,82,79,29.74,29.62,35,2,35,0.00
2014-12-11,46.2,41.6,37.2,40.4,36.3,32.4,83,81,81,29.71,29.62,22,2,30,0.00
2014-12-12,58.5,48.6,41.9,51.2,42.4,36.4,82,79,77,29.77,29.68,18,2,22,0.00
2014-12-13,58.5,51.7,48.2,51.0,45.2,42.1,79,78,77,29.71,29.59,16,1,16,0.00
2014-12-14,66.6,52.9,42.6,57.8,46.4,37.5,82,79,74,29.59,29.38,23,3,23,0.00
2014-12-15,60.4,53.0,47.5,58.5,49.4,41.6,100,88,77,29.38,29.12,65,9,65,0.31
2014-12-16,52.0,46.3,35.4,45.2,40.4,30.9,83,80,78,29.56,24.72,56,15,72,0.00
2014-12-17,46.2,38.8,32.5,40.6,33.9,28.4,85,83,81,17.72,17.72,25,2,27,0.00
2014-12-18,47.8,41.9,36.1,41.8,37.6,32.0,97,85,79,17.72,17.72,22,0,22,0.08
2014-12-19,46.2,42.5,38.5,40.6,37.2,33.3,82,82,81,29.59,17.72,23,1,25,0.00
2014-12-20,51.4,42.1,34.9,44.8,36.7,30.5,85,81,78,17.72,17.72,16,1,22,0.00
2014-12-21,56.8,43.3,31.6,49.6,37.8,27.6,85,81,77,17.72,17.72,22,2,25,0.00
2014-12-22,59.2,53.2,46.0,56.3,49.4,40.3,100,88,77,17.72,17.72,32,2,35,0.12
2014-12-23,55.8,51.7,48.7,55.8,48.7,42.8,100,90,79,17.72,17.72,12,0,12,0.04
2014-12-24,49.3,44.8,40.6,43.2,39.9,36.2,91,83,79,17.72,17.72,42,7,44,0.00
2014-12-25,56.3,44.6,34.7,48.9,39.1,30.6,86,81,77,17.72,17.72,32,5,40,0.00
2014-12-26,56.1,48.0,40.3,48.9,42.1,35.2,82,80,77,17.72,17.72,25,5,32,0.00
2014-12-27,55.8,52.9,48.0,54.7,49.5,43.7,100,89,78,17.72,17.72,29,2,30,0.35
2014-12-28,48.0,40.2,37.8,48.0,38.2,34.3,100,93,83,17.72,17.72,16,0,16,0.08
2014-12-29,40.8,37.8,36.7,37.8,34.4,32.1,100,87,82,17.72,17.72,9,0,25,0.00
2014-12-30,44.1,36.0,29.8,38.5,31.3,25.8,86,83,81,17.72,17.72,42,5,42,0.00
2014-12-31,39.2,32.6,27.0,34.2,28.2,23.0,85,83,82,17.72,17.72,40,3,40,0.00
2015-1-1,45.1,37.4,33.8,39.6,33.0,29.3,94,84,81,17.72,17.72,20,0,22,0.08
2015-1-2,49.1,43.4,38.3,49.1,42.6,36.5,100,97,81,17.72,17.72,0,0,9,0.00